createdAt,value
2018-10-17T00:00:45.456Z,45.9
2018-10-17T00:01:46.168Z,46.7
2018-10-17T00:02:47.140Z,46.8
2018-10-17T00:03:47.860Z,46.0
2018-10-17T00:04:48.822Z,45.3
2018-10-17T00:05:49.550Z,46.7
2018-10-17T00:06:50.287Z,46.5
2018-10-17T00:07:51.014Z,45.9
2018-10-17T00:08:51.732Z,46.6
2018-10-17T00:09:52.457Z,45.6
2018-10-17T00:10:53.255Z,44.8
2018-10-17T00:11:53.983Z,48.6
2018-10-17T00:12:54.708Z,48.9
2018-10-17T00:13:55.419Z,49.5
2018-10-17T00:14:56.141Z,51.4
2018-10-17T00:15:56.910Z,51.3
2018-10-17T00:16:57.657Z,50.3
2018-10-17T00:17:58.354Z,50.0
2018-10-17T00:18:59.094Z,48.9
2018-10-17T00:19:59.822Z,49.5
2018-10-17T00:21:00.794Z,48.9
2018-10-17T00:22:01.582Z,49.7
2018-10-17T00:23:02.380Z,49.8
2018-10-17T00:24:03.042Z,48.7
2018-10-17T00:25:03.840Z,51.3
2018-10-17T00:26:04.514Z,52.0
2018-10-17T00:27:05.301Z,50.6
2018-10-17T00:28:06.037Z,50.1
2018-10-17T00:29:06.827Z,52.3
2018-10-17T00:30:07.485Z,51.7
2018-10-17T00:31:08.267Z,52.9
2018-10-17T00:32:08.935Z,51.4
2018-10-17T00:33:09.653Z,51.8
2018-10-17T00:34:10.379Z,52.0
2018-10-17T00:35:11.195Z,50.7
2018-10-17T00:36:11.825Z,49.9
2018-10-17T00:37:12.624Z,48.6
2018-10-17T00:38:13.327Z,49.0
2018-10-17T00:39:14.049Z,49.6
2018-10-17T00:40:14.811Z,50.7
2018-10-17T00:41:15.610Z,48.8
2018-10-17T00:42:16.243Z,51.0
2018-10-17T00:43:17.279Z,49.3
2018-10-17T00:44:17.947Z,49.4
2018-10-17T00:45:18.668Z,49.4
2018-10-17T00:46:19.398Z,47.9
2018-10-17T00:47:20.170Z,49.7
2018-10-17T00:48:20.890Z,49.3
2018-10-17T00:49:21.597Z,47.9
2018-10-17T00:50:22.321Z,49.6
2018-10-17T00:51:23.048Z,49.4
2018-10-17T00:52:23.757Z,50.1
2018-10-17T00:53:24.529Z,49.5
2018-10-17T00:54:25.260Z,48.6
2018-10-17T00:55:25.979Z,48.8
2018-10-17T00:56:26.705Z,46.7
2018-10-17T00:57:27.414Z,47.7
2018-10-17T00:58:28.144Z,48.3
2018-10-17T00:59:28.854Z,51.7
2018-10-17T01:00:29.583Z,53.4
2018-10-17T01:01:30.307Z,52.5
2018-10-17T01:02:31.090Z,52.5
2018-10-17T01:03:31.813Z,51.2
2018-10-17T01:04:32.552Z,50.0
2018-10-17T01:05:33.544Z,53.2
2018-10-17T01:06:34.264Z,52.0
2018-10-17T01:07:35.030Z,52.5
2018-10-17T01:08:35.751Z,51.7
2018-10-17T01:09:36.485Z,51.4
2018-10-17T01:10:37.224Z,49.5
2018-10-17T01:11:37.947Z,50.7
2018-10-17T01:12:38.936Z,50.5
2018-10-17T01:13:39.871Z,50.5
2018-10-17T01:14:40.607Z,53.2
2018-10-17T01:15:41.604Z,52.4
2018-10-17T01:16:42.325Z,52.1
2018-10-17T01:17:43.045Z,51.5
2018-10-17T01:18:43.779Z,53.3
2018-10-17T01:19:44.499Z,55.5
2018-10-17T01:20:45.219Z,52.4
2018-10-17T01:21:45.965Z,53.6
2018-10-17T01:22:46.695Z,52.7
2018-10-17T01:23:47.410Z,53.6
2018-10-17T01:24:48.134Z,49.7
2018-10-17T01:25:48.904Z,53.1
2018-10-17T01:26:49.622Z,51.1
2018-10-17T01:27:50.371Z,53.8
2018-10-17T01:28:51.100Z,55.2
2018-10-17T01:29:51.846Z,53.4
2018-10-17T01:30:52.631Z,52.9
2018-10-17T01:31:53.337Z,51.8
2018-10-17T01:32:54.061Z,53.4
2018-10-17T01:33:55.071Z,54.2
2018-10-17T01:34:55.809Z,49.5
2018-10-17T01:35:56.566Z,51.1
2018-10-17T01:36:57.336Z,51.6
2018-10-17T01:37:58.005Z,48.6
2018-10-17T01:38:58.721Z,50.8
2018-10-17T01:39:59.448Z,50.7
2018-10-17T01:41:00.249Z,50.2
2018-10-17T01:42:00.892Z,50.3
2018-10-17T01:43:01.651Z,49.1
2018-10-17T01:44:02.343Z,51.6
2018-10-17T01:45:03.077Z,50.6
2018-10-17T01:46:04.058Z,51.4
2018-10-17T01:47:04.812Z,53.3
2018-10-17T01:48:05.508Z,50.8
2018-10-17T01:49:06.384Z,50.3
2018-10-17T01:50:07.062Z,49.6
2018-10-17T01:51:08.036Z,51.5
2018-10-17T01:52:08.752Z,52.3
2018-10-17T01:53:09.535Z,50.3
2018-10-17T01:54:10.210Z,49.7
2018-10-17T01:55:10.963Z,51.7
2018-10-17T01:56:11.653Z,52.3
2018-10-17T01:57:12.384Z,53.3
2018-10-17T01:58:13.134Z,49.8
2018-10-17T01:59:13.928Z,54.1
2018-10-17T02:00:14.589Z,52.3
2018-10-17T02:01:15.639Z,53.4
2018-10-17T02:02:16.282Z,51.2
2018-10-17T02:03:17.013Z,51.5
2018-10-17T02:04:17.733Z,51.0
2018-10-17T02:05:18.533Z,51.7
2018-10-17T02:06:19.165Z,51.1
2018-10-17T02:07:19.951Z,51.1
2018-10-17T02:08:20.664Z,53.6
2018-10-17T02:09:21.384Z,52.0
2018-10-17T02:10:22.109Z,52.3
2018-10-17T02:11:23.082Z,53.8
2018-10-17T02:12:23.816Z,52.5
2018-10-17T02:13:24.539Z,51.0
2018-10-17T02:14:25.283Z,54.0
2018-10-17T02:15:26.005Z,53.9
2018-10-17T02:16:26.988Z,51.7
2018-10-17T02:17:27.696Z,52.2
2018-10-17T02:18:28.418Z,54.9
2018-10-17T02:19:29.133Z,53.6
2018-10-17T02:20:30.140Z,50.1
2018-10-17T02:21:30.854Z,53.7
2018-10-17T02:22:31.581Z,55.3
2018-10-17T02:23:32.568Z,52.1
2018-10-17T02:24:33.279Z,52.9
2018-10-17T02:25:34.002Z,50.6
2018-10-17T02:26:34.749Z,50.1
2018-10-17T02:27:35.467Z,50.2
2018-10-17T02:28:36.199Z,50.9
2018-10-17T02:29:36.936Z,52.2
2018-10-17T02:30:37.697Z,47.6
2018-10-17T02:31:38.433Z,46.9
2018-10-17T02:32:39.158Z,53.3
2018-10-17T02:33:39.888Z,52.1
2018-10-17T02:34:40.619Z,50.0
2018-10-17T02:35:41.504Z,51.0
2018-10-17T02:36:42.234Z,51.2
2018-10-17T02:37:42.962Z,51.6
2018-10-17T02:38:43.686Z,51.4
2018-10-17T02:39:44.476Z,50.7
2018-10-17T02:40:45.313Z,53.5
2018-10-17T02:41:46.046Z,54.4
2018-10-17T02:42:46.800Z,54.8
2018-10-17T02:43:47.551Z,51.9
2018-10-17T02:44:48.272Z,51.9
2018-10-17T02:45:49.047Z,55.3
2018-10-17T02:46:49.772Z,56.3
2018-10-17T02:47:50.497Z,56.4
2018-10-17T02:48:51.291Z,56.6
2018-10-17T02:49:51.952Z,56.4
2018-10-17T02:50:52.713Z,56.2
2018-10-17T02:51:53.430Z,55.1
2018-10-17T02:52:54.207Z,53.6
2018-10-17T02:53:54.894Z,52.2
2018-10-17T02:54:55.641Z,51.8
2018-10-17T02:55:56.345Z,51.0
2018-10-17T02:56:57.068Z,50.7
2018-10-17T02:57:57.799Z,51.7
2018-10-17T02:58:58.521Z,51.6
2018-10-17T02:59:59.498Z,50.9
2018-10-17T03:01:00.320Z,51.3
2018-10-17T03:02:00.992Z,51.8
2018-10-17T03:03:01.718Z,52.7
2018-10-17T03:04:02.449Z,51.3
2018-10-17T03:05:03.186Z,53.9
2018-10-17T03:06:03.941Z,53.4
2018-10-17T03:07:04.695Z,53.4
2018-10-17T03:08:05.383Z,53.3
2018-10-17T03:09:06.353Z,51.4
2018-10-17T03:10:07.103Z,51.2
2018-10-17T03:11:07.896Z,49.9
2018-10-17T03:12:08.621Z,52.2
2018-10-17T03:13:09.409Z,50.9
2018-10-17T03:14:10.072Z,50.7
2018-10-17T03:15:10.791Z,50.5
2018-10-17T03:16:11.528Z,52.3
2018-10-17T03:17:12.330Z,50.6
2018-10-17T03:18:12.991Z,51.9
2018-10-17T03:19:13.747Z,51.5
2018-10-17T03:20:14.448Z,49.5
2018-10-17T03:21:15.169Z,48.5
2018-10-17T03:22:15.887Z,50.4
2018-10-17T03:23:16.628Z,50.2
2018-10-17T03:24:17.352Z,49.2
2018-10-17T03:25:18.168Z,49.4
2018-10-17T03:26:18.867Z,50.1
2018-10-17T03:27:19.584Z,49.8
2018-10-17T03:28:20.302Z,49.0
2018-10-17T03:29:21.034Z,48.9
2018-10-17T03:30:21.759Z,50.2
2018-10-17T03:31:22.589Z,50.8
2018-10-17T03:32:23.235Z,49.1
2018-10-17T03:33:23.951Z,49.7
2018-10-17T03:34:24.682Z,48.7
2018-10-17T03:35:25.448Z,50.4
2018-10-17T03:36:26.174Z,50.2
2018-10-17T03:37:26.914Z,50.5
2018-10-17T03:38:27.637Z,50.2
2018-10-17T03:39:28.375Z,49.3
2018-10-17T03:40:29.383Z,49.3
2018-10-17T03:41:30.105Z,50.3
2018-10-17T03:42:30.873Z,49.6
2018-10-17T03:43:31.869Z,50.8
2018-10-17T03:44:32.585Z,49.7
2018-10-17T03:45:33.319Z,50.0
2018-10-17T03:46:34.028Z,50.4
2018-10-17T03:47:34.761Z,50.6
2018-10-17T03:48:35.482Z,49.7
2018-10-17T03:49:36.221Z,51.1
2018-10-17T03:50:36.926Z,50.4
2018-10-17T03:51:37.654Z,50.8
2018-10-17T03:52:38.404Z,49.0
2018-10-17T03:53:39.129Z,49.5
2018-10-17T03:54:39.839Z,49.2
2018-10-17T03:55:40.568Z,48.9
2018-10-17T03:56:41.284Z,47.6
2018-10-17T03:57:42.005Z,50.0
2018-10-17T03:58:42.761Z,49.2
2018-10-17T03:59:43.591Z,47.9
2018-10-17T04:00:44.223Z,47.8
2018-10-17T04:01:44.947Z,50.1
2018-10-17T04:02:45.705Z,48.3
2018-10-17T04:03:46.416Z,48.3
2018-10-17T04:04:47.185Z,50.6
2018-10-17T04:05:47.917Z,50.3
2018-10-17T04:06:48.648Z,46.4
2018-10-17T04:07:49.369Z,45.5
2018-10-17T04:08:50.106Z,47.3
2018-10-17T04:09:50.963Z,46.3
2018-10-17T04:10:51.715Z,45.3
2018-10-17T04:11:52.405Z,48.2
2018-10-17T04:12:53.132Z,46.2
2018-10-17T04:13:53.829Z,47.7
2018-10-17T04:14:54.559Z,46.3
2018-10-17T04:15:55.304Z,49.8
2018-10-17T04:16:56.067Z,47.2
2018-10-17T04:17:56.745Z,44.1
2018-10-17T04:18:57.984Z,48.5
2018-10-17T04:19:58.697Z,47.8
2018-10-17T04:20:59.456Z,45.3
2018-10-17T04:22:00.153Z,46.3
2018-10-17T04:23:00.899Z,47.0
2018-10-17T04:24:01.665Z,47.6
2018-10-17T04:25:02.450Z,47.5
2018-10-17T04:26:03.116Z,46.9
2018-10-17T04:27:04.104Z,46.5
2018-10-17T04:28:04.818Z,46.6
2018-10-17T04:29:05.703Z,48.4
2018-10-17T04:30:06.331Z,46.0
2018-10-17T04:31:07.350Z,46.9
2018-10-17T04:32:08.028Z,46.4
2018-10-17T04:33:08.753Z,45.7
2018-10-17T04:34:09.520Z,46.7
2018-10-17T04:35:10.583Z,48.3
2018-10-17T04:36:11.354Z,49.2
2018-10-17T04:37:11.997Z,47.3
2018-10-17T04:38:12.677Z,49.1
2018-10-17T04:39:13.403Z,48.8
2018-10-17T04:40:14.121Z,49.7
2018-10-17T04:41:14.911Z,50.1
2018-10-17T04:42:15.566Z,44.6
2018-10-17T04:43:16.371Z,47.6
2018-10-17T04:44:17.011Z,47.4
2018-10-17T04:45:17.748Z,47.3
2018-10-17T04:46:18.468Z,47.3
2018-10-17T04:47:19.229Z,46.8
2018-10-17T04:48:19.924Z,47.7
2018-10-17T04:49:20.630Z,46.9
2018-10-17T04:50:21.366Z,45.0
2018-10-17T04:51:22.148Z,47.6
2018-10-17T04:52:22.874Z,46.2
2018-10-17T04:53:23.633Z,47.2
2018-10-17T04:54:24.356Z,47.4
2018-10-17T04:55:25.359Z,46.7
2018-10-17T04:56:26.151Z,48.5
2018-10-17T04:57:26.871Z,45.3
2018-10-17T04:58:27.591Z,44.7
2018-10-17T04:59:28.308Z,49.0
2018-10-17T05:00:29.292Z,45.1
2018-10-17T05:01:30.073Z,47.6
2018-10-17T05:02:30.796Z,48.4
2018-10-17T05:03:31.533Z,50.4
2018-10-17T05:04:32.317Z,48.9
2018-10-17T05:05:32.970Z,51.0
2018-10-17T05:06:33.944Z,51.3
2018-10-17T05:07:34.666Z,49.5
2018-10-17T05:08:35.391Z,50.9
2018-10-17T05:09:36.115Z,49.2
2018-10-17T05:10:36.853Z,50.0
2018-10-17T05:11:37.582Z,48.6
2018-10-17T05:12:38.307Z,49.7
2018-10-17T05:13:39.071Z,49.6
2018-10-17T05:14:39.803Z,48.7
2018-10-17T05:15:40.785Z,46.3
2018-10-17T05:16:41.771Z,47.3
2018-10-17T05:17:42.519Z,46.1
2018-10-17T05:18:43.235Z,46.9
2018-10-17T05:19:44.012Z,46.6
2018-10-17T05:20:44.733Z,49.8
2018-10-17T05:21:45.495Z,51.3
2018-10-17T05:22:46.208Z,48.8
2018-10-17T05:23:47.179Z,47.9
2018-10-17T05:24:47.954Z,48.1
2018-10-17T05:25:48.677Z,50.5
2018-10-17T05:26:49.394Z,49.5
2018-10-17T05:27:50.129Z,51.7
2018-10-17T05:28:50.860Z,51.6
2018-10-17T05:29:51.740Z,49.0
2018-10-17T05:30:52.406Z,51.1
2018-10-17T05:31:53.128Z,48.8
2018-10-17T05:32:53.842Z,50.5
2018-10-17T05:33:54.563Z,50.8
2018-10-17T05:34:55.369Z,49.7
2018-10-17T05:35:56.071Z,50.7
2018-10-17T05:36:56.809Z,49.4
2018-10-17T05:37:57.812Z,49.5
2018-10-17T05:38:58.512Z,49.4
2018-10-17T05:39:59.489Z,50.6
2018-10-17T05:41:00.245Z,51.3
2018-10-17T05:42:01.188Z,51.0
2018-10-17T05:43:02.194Z,52.9
2018-10-17T05:44:02.894Z,48.6
2018-10-17T05:45:03.617Z,50.3
2018-10-17T05:46:04.337Z,49.2
2018-10-17T05:47:05.095Z,48.0
2018-10-17T05:48:06.090Z,121.0
2018-10-17T05:49:07.185Z,75.0
2018-10-17T05:50:07.816Z,57.9
2018-10-17T05:51:08.541Z,51.5
2018-10-17T05:52:09.293Z,53.3
2018-10-17T05:53:10.052Z,51.9
2018-10-17T05:54:10.740Z,50.7
2018-10-17T05:55:11.577Z,51.1
2018-10-17T05:56:12.226Z,52.0
2018-10-17T05:57:12.960Z,50.0
2018-10-17T05:58:13.695Z,53.3
2018-10-17T05:59:14.697Z,52.2
2018-10-17T06:00:15.314Z,51.0
2018-10-17T06:01:16.116Z,50.1
2018-10-17T06:02:16.905Z,49.4
2018-10-17T06:03:17.487Z,51.7
2018-10-17T06:04:18.628Z,48.9
2018-10-17T06:05:19.345Z,50.1
2018-10-17T06:06:20.072Z,54.1
2018-10-17T06:07:20.801Z,51.1
2018-10-17T06:08:21.523Z,53.6
2018-10-17T06:09:22.254Z,52.6
2018-10-17T06:10:23.045Z,51.7
2018-10-17T06:11:23.705Z,48.1
2018-10-17T06:12:24.426Z,52.1
2018-10-17T06:13:25.168Z,52.7
2018-10-17T06:14:25.902Z,53.0
2018-10-17T06:15:26.619Z,50.0
2018-10-17T06:16:27.397Z,52.3
2018-10-17T06:17:28.239Z,53.8
2018-10-17T06:18:28.868Z,53.4
2018-10-17T06:19:29.590Z,52.6
2018-10-17T06:20:30.314Z,50.0
2018-10-17T06:21:31.098Z,55.3
2018-10-17T06:22:31.818Z,52.4
2018-10-17T06:23:32.561Z,51.6
2018-10-17T06:24:33.293Z,50.0
2018-10-17T06:25:34.020Z,50.2
2018-10-17T06:26:34.761Z,50.9
2018-10-17T06:27:35.484Z,48.5
2018-10-17T06:28:36.463Z,50.5
2018-10-17T06:29:37.184Z,51.2
2018-10-17T06:30:38.239Z,53.9
2018-10-17T06:31:38.901Z,50.0
2018-10-17T06:32:39.686Z,49.1
2018-10-17T06:33:40.426Z,50.6
2018-10-17T06:34:41.207Z,50.2
2018-10-17T06:35:42.130Z,48.8
2018-10-17T06:36:42.854Z,48.0
2018-10-17T06:37:43.648Z,48.3
2018-10-17T06:38:44.375Z,47.2
2018-10-17T06:39:45.103Z,47.7
2018-10-17T06:40:45.830Z,47.3
2018-10-17T06:41:46.819Z,46.1
2018-10-17T06:42:47.554Z,47.0
2018-10-17T06:43:48.419Z,47.5
2018-10-17T06:44:49.032Z,49.6
2018-10-17T06:45:49.771Z,50.4
2018-10-17T06:46:50.490Z,51.1
2018-10-17T06:47:51.216Z,50.9
2018-10-17T06:48:51.951Z,51.4
2018-10-17T06:49:52.673Z,48.4
2018-10-17T06:50:53.656Z,49.6
2018-10-17T06:51:54.391Z,49.1
2018-10-17T06:52:55.174Z,47.4
2018-10-17T06:53:55.942Z,51.7
2018-10-17T06:54:56.612Z,47.1
2018-10-17T06:55:57.326Z,50.6
2018-10-17T06:56:58.053Z,51.4
2018-10-17T06:57:59.045Z,51.2
2018-10-17T06:58:59.793Z,49.9
2018-10-17T07:00:00.554Z,50.4
2018-10-17T07:01:01.328Z,50.5
2018-10-17T07:02:02.035Z,51.6
2018-10-17T07:03:02.746Z,53.8
2018-10-17T07:04:03.473Z,55.2
2018-10-17T07:05:04.260Z,52.2
2018-10-17T07:06:04.926Z,54.1
2018-10-17T07:07:05.729Z,53.1
2018-10-17T07:08:06.386Z,51.1
2018-10-17T07:09:07.364Z,54.9
2018-10-17T07:10:08.393Z,53.2
2018-10-17T07:11:09.181Z,52.1
2018-10-17T07:12:09.862Z,47.6
2018-10-17T07:13:10.601Z,48.7
2018-10-17T07:14:11.325Z,48.9
2018-10-17T07:15:12.094Z,46.6
2018-10-17T07:16:12.801Z,48.7
2018-10-17T07:17:13.550Z,46.7
2018-10-17T07:18:14.255Z,46.4
2018-10-17T07:19:15.345Z,45.7
2018-10-17T07:20:15.969Z,44.5
2018-10-17T07:21:16.963Z,47.5
2018-10-17T07:22:17.693Z,47.3
2018-10-17T07:23:18.412Z,47.6
2018-10-17T07:24:19.142Z,47.1
2018-10-17T07:25:19.869Z,50.0
2018-10-17T07:26:20.613Z,46.5
2018-10-17T07:27:21.335Z,44.9
2018-10-17T07:28:22.315Z,44.4
2018-10-17T07:29:23.182Z,45.0
2018-10-17T07:30:23.820Z,42.9
2018-10-17T07:31:24.565Z,44.9
2018-10-17T07:32:25.307Z,42.6
2018-10-17T07:33:26.033Z,43.1
2018-10-17T07:34:26.754Z,42.0
2018-10-17T07:35:27.516Z,42.6
2018-10-17T07:36:28.217Z,42.7
2018-10-17T07:37:28.944Z,42.1
2018-10-17T07:38:29.679Z,41.9
2018-10-17T07:39:30.410Z,42.6
2018-10-17T07:40:31.418Z,42.4
2018-10-17T07:41:32.143Z,40.5
2018-10-17T07:42:32.872Z,41.7
2018-10-17T07:43:33.605Z,43.3
2018-10-17T07:44:34.336Z,42.5
2018-10-17T07:45:35.138Z,40.9
2018-10-17T07:46:35.839Z,43.8
2018-10-17T07:47:36.570Z,46.7
2018-10-17T07:48:37.307Z,45.9
2018-10-17T07:49:38.032Z,44.3
2018-10-17T07:50:38.755Z,45.1
2018-10-17T07:51:39.503Z,40.5
2018-10-17T07:52:40.224Z,37.6
2018-10-17T07:53:40.972Z,34.1
2018-10-17T07:54:42.189Z,28.9
2018-10-17T07:55:43.180Z,26.3
2018-10-17T07:56:44.271Z,22.4
2018-10-17T07:57:45.285Z,20.2
2018-10-17T07:58:46.053Z,20.2
2018-10-17T07:59:46.844Z,18.9
2018-10-17T08:00:47.517Z,17.7
2018-10-17T08:01:48.246Z,17.5
2018-10-17T08:02:49.284Z,15.7
2018-10-17T08:03:50.018Z,14.1
2018-10-17T08:04:50.735Z,14.7
2018-10-17T08:05:52.127Z,15.1
2018-10-17T08:06:53.654Z,15.6
2018-10-17T08:07:54.796Z,14.5
2018-10-17T08:08:55.949Z,15.6
2018-10-17T08:09:56.663Z,14.7
2018-10-17T08:10:57.391Z,14.5
2018-10-17T08:11:58.135Z,13.3
2018-10-17T08:12:58.891Z,13.5
2018-10-17T08:13:59.657Z,12.9
2018-10-17T08:15:00.339Z,13.0
2018-10-17T08:16:01.064Z,11.8
2018-10-17T08:17:01.809Z,11.4
2018-10-17T08:18:02.877Z,11.2
2018-10-17T08:19:03.525Z,11.1
2018-10-17T08:20:04.250Z,11.0
2018-10-17T08:21:04.991Z,12.5
2018-10-17T08:22:05.713Z,11.7
2018-10-17T08:23:06.449Z,10.1
2018-10-17T08:24:07.249Z,10.3
2018-10-17T08:25:07.911Z,10.4
2018-10-17T08:26:08.657Z,10.2
2018-10-17T08:27:09.402Z,9.6
2018-10-17T08:28:10.123Z,9.4
2018-10-17T08:29:10.851Z,9.9
2018-10-17T08:30:11.668Z,9.5
2018-10-17T08:31:12.328Z,9.8
2018-10-17T08:32:13.064Z,10.0
2018-10-17T08:33:13.785Z,10.5
2018-10-17T08:34:14.517Z,10.3
2018-10-17T08:35:15.267Z,10.6
2018-10-17T08:36:16.216Z,10.8
2018-10-17T08:37:17.385Z,10.5
2018-10-17T08:38:17.720Z,11.4
2018-10-17T08:39:18.457Z,11.0
2018-10-17T08:40:19.174Z,11.4
2018-10-17T08:41:19.925Z,11.7
2018-10-17T08:42:20.641Z,12.3
2018-10-17T08:43:21.372Z,12.2
2018-10-17T08:44:22.366Z,12.1
2018-10-17T08:45:23.452Z,12.2
2018-10-17T08:46:24.264Z,11.7
2018-10-17T08:47:25.004Z,11.8
2018-10-17T08:48:25.785Z,10.6
2018-10-17T08:49:26.778Z,10.2
2018-10-17T08:50:27.562Z,10.2
2018-10-17T08:51:28.248Z,10.3
2018-10-17T08:52:28.983Z,9.4
2018-10-17T08:53:29.721Z,9.5
2018-10-17T08:54:30.455Z,9.3
2018-10-17T08:55:31.440Z,8.9
2018-10-17T08:56:32.216Z,9.2
2018-10-17T08:57:32.954Z,9.1
2018-10-17T08:58:33.684Z,9.3
2018-10-17T08:59:34.684Z,9.1
2018-10-17T09:00:35.413Z,9.0
2018-10-17T09:01:36.139Z,8.6
2018-10-17T09:02:36.874Z,8.1
2018-10-17T09:03:37.620Z,9.8
2018-10-17T09:04:38.342Z,8.5
2018-10-17T09:05:39.074Z,8.7
2018-10-17T09:06:39.808Z,8.9
2018-10-17T09:07:41.356Z,8.7
2018-10-17T09:08:42.544Z,8.3
2018-10-17T09:09:43.268Z,8.2
2018-10-17T09:10:44.018Z,8.4
2018-10-17T09:11:45.054Z,7.9
2018-10-17T09:12:45.790Z,7.5
2018-10-17T09:13:46.528Z,6.7
2018-10-17T09:14:47.283Z,7.3
2018-10-17T09:15:48.258Z,7.7
2018-10-17T09:16:49.036Z,8.0
2018-10-17T09:17:49.727Z,7.5
2018-10-17T09:18:50.461Z,7.1
2018-10-17T09:19:51.523Z,7.1
2018-10-17T09:20:52.327Z,8.0
2018-10-17T09:21:53.182Z,8.3
2018-10-17T09:22:53.536Z,7.6
2018-10-17T09:23:54.293Z,7.5
2018-10-17T09:24:55.002Z,8.0
2018-10-17T09:25:55.723Z,7.1
2018-10-17T09:26:56.709Z,7.3
2018-10-17T09:27:57.906Z,7.7
2018-10-17T09:28:58.607Z,7.6
2018-10-17T09:29:59.358Z,8.1
2018-10-17T09:31:00.076Z,8.1
2018-10-17T09:32:00.812Z,7.4
2018-10-17T09:33:01.549Z,7.7
2018-10-17T09:34:02.307Z,7.2
2018-10-17T09:35:03.065Z,7.6
2018-10-17T09:36:03.765Z,7.1
2018-10-17T09:37:04.481Z,7.8
2018-10-17T09:38:05.216Z,7.8
2018-10-17T09:39:05.959Z,7.7
2018-10-17T09:40:06.705Z,7.8
2018-10-17T09:41:07.430Z,7.4
2018-10-17T09:42:08.185Z,7.4
2018-10-17T09:43:09.016Z,7.0
2018-10-17T09:44:09.768Z,8.2
2018-10-17T09:45:10.621Z,8.4
2018-10-17T09:46:11.836Z,7.9
2018-10-17T09:47:12.569Z,6.6
2018-10-17T09:48:13.376Z,7.2
2018-10-17T09:49:14.035Z,6.7
2018-10-17T09:50:14.768Z,6.3
2018-10-17T09:51:15.563Z,6.6
2018-10-17T09:52:16.373Z,6.4
2018-10-17T09:53:17.075Z,6.9
2018-10-17T09:54:17.900Z,6.7
2018-10-17T09:55:18.499Z,6.7
2018-10-17T09:56:19.238Z,7.3
2018-10-17T09:57:19.961Z,7.1
2018-10-17T09:58:20.696Z,6.4
2018-10-17T09:59:21.434Z,7.2
2018-10-17T10:00:22.422Z,7.4
2018-10-17T10:01:23.141Z,7.1
2018-10-17T10:02:23.967Z,7.2
2018-10-17T10:03:24.627Z,8.1
2018-10-17T10:04:25.360Z,7.3
2018-10-17T10:05:26.089Z,8.7
2018-10-17T10:06:26.826Z,8.8
2018-10-17T10:07:27.561Z,9.5
2018-10-17T10:08:28.345Z,8.7
2018-10-17T10:09:29.338Z,9.1
2018-10-17T10:10:30.080Z,9.0
2018-10-17T10:11:30.822Z,8.5
2018-10-17T10:12:31.549Z,8.6
2018-10-17T10:13:32.286Z,8.5
2018-10-17T10:14:33.079Z,8.6
2018-10-17T10:15:33.809Z,8.8
2018-10-17T10:16:34.571Z,9.3
2018-10-17T10:17:35.316Z,9.3
2018-10-17T10:18:36.040Z,9.3
2018-10-17T10:19:36.773Z,10.6
2018-10-17T10:20:37.819Z,10.2
2018-10-17T10:21:38.979Z,8.6
2018-10-17T10:22:39.840Z,9.4
2018-10-17T10:23:40.629Z,8.7
2018-10-17T10:24:41.319Z,9.4
2018-10-17T10:25:42.060Z,8.8
2018-10-17T10:26:42.797Z,8.9
2018-10-17T10:27:43.540Z,7.4
2018-10-17T10:28:44.385Z,8.9
2018-10-17T10:29:45.025Z,8.9
2018-10-17T10:30:45.740Z,8.5
2018-10-17T10:31:46.494Z,8.5
2018-10-17T10:32:47.239Z,8.0
2018-10-17T10:33:48.230Z,7.9
2018-10-17T10:34:48.963Z,8.1
2018-10-17T10:35:49.704Z,8.5
2018-10-17T10:36:50.436Z,8.3
2018-10-17T10:37:51.440Z,8.0
2018-10-17T10:38:52.170Z,8.4
2018-10-17T10:39:52.939Z,8.2
2018-10-17T10:40:53.652Z,8.0
2018-10-17T10:41:54.443Z,8.2
2018-10-17T10:42:55.123Z,7.9
2018-10-17T10:43:55.857Z,7.7
2018-10-17T10:44:56.664Z,7.7
2018-10-17T10:45:57.390Z,8.2
2018-10-17T10:46:58.119Z,7.7
2018-10-17T10:47:58.854Z,7.2
2018-10-17T10:48:59.656Z,7.2
2018-10-17T10:50:00.436Z,7.5
2018-10-17T10:51:01.148Z,7.2
2018-10-17T10:52:02.273Z,7.5
2018-10-17T10:53:03.016Z,7.3
2018-10-17T10:54:03.770Z,7.0
2018-10-17T10:55:04.528Z,6.8
2018-10-17T10:56:05.323Z,6.8
2018-10-17T10:57:06.040Z,6.5
2018-10-17T10:58:06.784Z,7.2
2018-10-17T10:59:07.552Z,7.8
2018-10-17T11:00:08.268Z,7.1
2018-10-17T11:01:08.931Z,7.5
2018-10-17T11:02:09.751Z,7.7
2018-10-17T11:03:10.434Z,7.8
2018-10-17T11:04:11.146Z,7.7
2018-10-17T11:05:11.939Z,7.9
2018-10-17T11:06:12.626Z,7.7
2018-10-17T11:07:13.358Z,7.9
2018-10-17T11:08:14.156Z,7.4
2018-10-17T11:09:14.842Z,7.6
2018-10-17T11:10:15.580Z,7.4
2018-10-17T11:11:16.366Z,7.9
2018-10-17T11:12:17.058Z,7.3
2018-10-17T11:13:17.807Z,7.2
2018-10-17T11:14:18.790Z,7.9
2018-10-17T11:15:19.329Z,8.6
2018-10-17T11:16:20.071Z,7.8
2018-10-17T11:17:20.815Z,7.3
2018-10-17T11:18:22.206Z,8.4
2018-10-17T11:19:22.938Z,15.5
2018-10-17T11:20:24.429Z,12.7
2018-10-17T11:21:25.268Z,7.4
2018-10-17T11:22:26.223Z,7.9
2018-10-17T11:23:26.953Z,7.2
2018-10-17T11:24:27.684Z,7.1
2018-10-17T11:25:28.419Z,7.0
2018-10-17T11:26:29.161Z,7.2
2018-10-17T11:27:29.899Z,6.7
2018-10-17T11:28:30.627Z,7.1
2018-10-17T11:29:31.358Z,6.6
2018-10-17T11:30:32.087Z,6.8
2018-10-17T11:31:32.888Z,6.7
2018-10-17T11:32:33.563Z,6.7
2018-10-17T11:33:34.595Z,6.5
2018-10-17T11:34:35.321Z,6.5
2018-10-17T11:35:36.297Z,6.2
2018-10-17T11:36:37.139Z,7.5
2018-10-17T11:37:38.384Z,7.1
2018-10-17T11:38:38.991Z,6.4
2018-10-17T11:39:40.172Z,6.4
2018-10-17T11:40:41.642Z,7.1
2018-10-17T11:41:42.305Z,6.9
2018-10-17T11:42:42.922Z,7.2
2018-10-17T11:43:43.656Z,6.8
2018-10-17T11:44:44.386Z,6.7
2018-10-17T11:45:45.134Z,6.4
2018-10-17T11:46:45.858Z,6.5
2018-10-17T11:47:46.846Z,6.4
2018-10-17T11:48:47.568Z,6.8
2018-10-17T11:49:48.563Z,7.0
2018-10-17T11:50:49.286Z,6.5
2018-10-17T11:51:50.035Z,6.7
2018-10-17T11:52:51.227Z,6.3
2018-10-17T11:53:51.904Z,5.8
2018-10-17T11:54:52.643Z,5.1
2018-10-17T11:55:53.381Z,5.9
2018-10-17T11:56:54.122Z,6.6
2018-10-17T11:57:54.856Z,6.1
2018-10-17T11:58:55.861Z,6.1
2018-10-17T11:59:56.582Z,6.4
2018-10-17T12:00:57.320Z,6.0
2018-10-17T12:01:58.045Z,6.6
2018-10-17T12:02:58.840Z,6.8
2018-10-17T12:03:59.733Z,6.1
2018-10-17T12:05:00.469Z,6.1
2018-10-17T12:06:01.087Z,5.8
2018-10-17T12:07:01.806Z,5.8
2018-10-17T12:08:02.601Z,5.6
2018-10-17T12:09:03.364Z,5.4
2018-10-17T12:10:04.075Z,5.9
2018-10-17T12:11:04.825Z,5.4
2018-10-17T12:12:05.611Z,5.6
2018-10-17T12:13:06.296Z,5.6
2018-10-17T12:14:07.039Z,5.5
2018-10-17T12:15:08.114Z,5.7
2018-10-17T12:16:08.775Z,5.9
2018-10-17T12:17:09.522Z,5.9
2018-10-17T12:18:10.386Z,5.8
2018-10-17T12:19:11.089Z,5.8
2018-10-17T12:20:11.804Z,5.6
2018-10-17T12:21:12.581Z,5.8
2018-10-17T12:22:13.274Z,5.8
2018-10-17T12:23:14.024Z,6.6
2018-10-17T12:24:14.828Z,5.7
2018-10-17T12:25:15.525Z,5.6
2018-10-17T12:26:16.268Z,5.5
2018-10-17T12:27:17.478Z,5.4
2018-10-17T12:28:18.225Z,5.5
2018-10-17T12:29:18.849Z,5.3
2018-10-17T12:30:19.595Z,5.6
2018-10-17T12:31:20.330Z,5.3
2018-10-17T12:32:21.077Z,5.0
2018-10-17T12:33:21.820Z,5.4
2018-10-17T12:34:22.558Z,5.0
2018-10-17T12:35:23.367Z,5.2
2018-10-17T12:36:24.103Z,5.0
2018-10-17T12:37:24.837Z,5.5
2018-10-17T12:38:25.824Z,5.4
2018-10-17T12:39:26.606Z,5.4
2018-10-17T12:40:27.439Z,5.1
2018-10-17T12:41:28.352Z,5.7
2018-10-17T12:42:29.033Z,4.8
2018-10-17T12:43:29.763Z,4.8
2018-10-17T12:44:30.908Z,5.2
2018-10-17T12:45:31.661Z,5.1
2018-10-17T12:46:32.390Z,5.8
2018-10-17T12:47:33.125Z,5.4
2018-10-17T12:48:33.855Z,5.5
2018-10-17T12:49:34.661Z,6.4
2018-10-17T12:50:35.388Z,5.8
2018-10-17T12:51:36.125Z,5.8
2018-10-17T12:52:36.885Z,6.0
2018-10-17T12:53:37.620Z,5.9
2018-10-17T12:54:38.376Z,5.5
2018-10-17T12:55:39.366Z,5.4
2018-10-17T12:56:40.097Z,5.0
2018-10-17T12:57:40.835Z,5.2
2018-10-17T12:58:41.581Z,5.7
2018-10-17T12:59:42.316Z,5.5
2018-10-17T13:00:43.046Z,5.4
2018-10-17T13:01:43.783Z,5.6
2018-10-17T13:02:44.528Z,5.9
2018-10-17T13:03:45.258Z,5.4
2018-10-17T13:04:45.991Z,5.7
2018-10-17T13:05:46.734Z,5.4
2018-10-17T13:06:47.461Z,5.6
2018-10-17T13:07:48.199Z,6.1
2018-10-17T13:08:48.942Z,5.9
2018-10-17T13:09:49.725Z,5.5
2018-10-17T13:10:50.477Z,6.3
2018-10-17T13:11:51.194Z,6.3
2018-10-17T13:12:51.938Z,5.8
2018-10-17T13:13:52.673Z,5.7
2018-10-17T13:14:53.501Z,5.8
2018-10-17T13:15:54.222Z,5.3
2018-10-17T13:16:54.987Z,5.8
2018-10-17T13:17:55.686Z,6.1
2018-10-17T13:18:56.461Z,6.3
2018-10-17T13:19:57.164Z,5.7
2018-10-17T13:20:57.895Z,5.2
2018-10-17T13:21:58.941Z,6.0
2018-10-17T13:22:59.723Z,5.5
2018-10-17T13:24:00.409Z,5.6
2018-10-17T13:25:01.197Z,4.9
2018-10-17T13:26:01.887Z,5.9
2018-10-17T13:27:02.674Z,5.8
2018-10-17T13:28:03.416Z,5.8
2018-10-17T13:29:04.184Z,5.8
2018-10-17T13:30:04.872Z,6.0
2018-10-17T13:31:05.931Z,5.5
2018-10-17T13:32:06.701Z,5.8
2018-10-17T13:33:07.509Z,5.7
2018-10-17T13:34:08.236Z,6.2
2018-10-17T13:35:09.089Z,5.9
2018-10-17T13:36:09.758Z,5.6
2018-10-17T13:37:10.814Z,4.8
2018-10-17T13:38:11.473Z,5.1